Time;durP1;ratioP1;P1;durP2;ratioP2;P2;SDS_P1;SDS_P2;PMS_P1;PMS_P2;Temp;Humidity;BMP_temperature;BMP_pressure;BME280_temperature;BME280_humidity;BME280_pressure;Samples;Min_cycle;Max_cycle;Signal;HPM_P1;HPM_P2
2023/04/23 00:00:05;;;;;;;5.40;2.67;;;14.20;99.90;;;;;;5067597;28;20428;-71
2023/04/23 00:02:33;;;;;;;4.43;2.13;;;14.20;99.90;;;;;;5069097;28;20845;-72
2023/04/23 00:05:04;;;;;;;5.00;2.40;;;14.20;99.90;;;;;;5051052;28;20445;-72
2023/04/23 00:07:34;;;;;;;6.27;2.10;;;14.20;99.90;;;;;;5069243;28;20847;-73
2023/04/23 00:10:04;;;;;;;5.23;2.17;;;14.20;99.90;;;;;;5069042;28;20914;-74
2023/04/23 00:12:30;;;;;;;3.70;2.00;;;14.20;99.90;;;;;;5069330;28;20559;-73
2023/04/23 00:14:56;;;;;;;3.63;2.23;;;14.20;99.90;;;;;;5068783;28;20468;-73
2023/04/23 00:17:22;;;;;;;10.80;1.93;;;14.10;99.90;;;;;;5069196;28;20424;-72
2023/04/23 00:19:47;;;;;;;7.03;2.70;;;14.10;99.90;;;;;;5069139;28;20428;-72
2023/04/23 00:22:15;;;;;;;5.33;2.00;;;14.10;99.90;;;;;;5067756;28;20179;-73
2023/04/23 00:24:44;;;;;;;4.73;2.70;;;14.10;99.90;;;;;;5069202;28;20226;-73
2023/04/23 00:27:09;;;;;;;4.07;2.17;;;14.10;99.90;;;;;;5050976;28;20528;-73
2023/04/23 00:29:35;;;;;;;5.27;2.20;;;14.10;99.90;;;;;;5069333;28;20516;-73
2023/04/23 00:32:02;;;;;;;7.57;2.50;;;14.10;99.90;;;;;;5069172;28;20650;-73
2023/04/23 00:34:27;;;;;;;3.10;2.07;;;14.00;99.90;;;;;;5067473;28;20240;-73
2023/04/23 00:36:53;;;;;;;7.70;1.93;;;14.00;99.90;;;;;;5068894;28;20448;-72
2023/04/23 00:39:19;;;;;;;6.13;2.73;;;14.00;99.90;;;;;;5067450;28;20194;-72
2023/04/23 00:41:45;;;;;;;6.53;2.23;;;14.00;99.90;;;;;;5067620;28;20551;-72
2023/04/23 00:44:12;;;;;;;7.20;1.93;;;14.00;99.90;;;;;;5068934;28;20494;-74
2023/04/23 00:46:38;;;;;;;2.60;1.90;;;14.00;99.90;;;;;;5067636;28;20351;-73
2023/04/23 00:49:03;;;;;;;4.70;2.27;;;14.00;99.90;;;;;;5067164;28;20540;-73
2023/04/23 00:51:30;;;;;;;11.40;2.80;;;13.90;99.90;;;;;;5068376;28;20528;-73
2023/04/23 00:53:57;;;;;;;5.40;2.60;;;14.00;99.90;;;;;;5068715;28;20218;-73
2023/04/23 00:56:24;;;;;;;8.17;1.63;;;13.90;99.90;;;;;;5070740;28;20421;-73
2023/04/23 00:58:50;;;;;;;7.60;2.20;;;13.90;99.90;;;;;;5072199;28;20451;-73
2023/04/23 01:01:19;;;;;;;3.73;2.60;;;14.00;99.90;;;;;;5087677;28;20962;-74
2023/04/23 01:03:47;;;;;;;3.80;2.20;;;13.90;99.90;;;;;;5072374;28;20816;-73
2023/04/23 01:06:13;;;;;;;2.90;2.00;;;13.90;99.90;;;;;;5070567;28;20423;-73
2023/04/23 01:08:41;;;;;;;7.73;2.33;;;13.90;99.90;;;;;;5071951;28;20449;-74
2023/04/23 01:11:08;;;;;;;2.20;1.57;;;13.90;99.90;;;;;;5070528;28;20797;-73
2023/04/23 01:13:34;;;;;;;2.33;2.10;;;13.90;99.90;;;;;;5072036;28;20517;-73
2023/04/23 01:16:01;;;;;;;9.30;1.90;;;13.90;99.90;;;;;;5070651;28;20408;-73
2023/04/23 01:18:28;;;;;;;4.23;2.20;;;13.90;99.90;;;;;;5071846;28;20421;-74
2023/04/23 01:20:54;;;;;;;4.60;1.73;;;13.80;99.90;;;;;;5071763;28;20413;-72
2023/04/23 01:23:20;;;;;;;4.73;1.53;;;13.90;99.90;;;;;;5071690;28;20410;-73
2023/04/23 01:25:46;;;;;;;4.50;2.00;;;13.80;99.90;;;;;;5070125;28;20413;-73
2023/04/23 01:28:12;;;;;;;3.20;2.00;;;13.80;99.90;;;;;;5070735;28;20417;-74
2023/04/23 01:30:39;;;;;;;3.90;1.73;;;13.80;99.90;;;;;;5087718;28;20562;-73
2023/04/23 01:33:05;;;;;;;3.53;2.40;;;13.70;99.90;;;;;;5081110;28;21326;-73
2023/04/23 01:35:31;;;;;;;4.03;1.83;;;13.60;99.90;;;;;;5080031;28;20418;-73
2023/04/23 01:37:58;;;;;;;5.53;2.10;;;13.60;99.90;;;;;;5080681;28;20467;-73
2023/04/23 01:40:23;;;;;;;7.10;2.27;;;13.60;99.90;;;;;;5077324;28;20449;-73
2023/04/23 01:42:49;;;;;;;3.90;2.40;;;13.50;99.90;;;;;;5074846;28;20901;-71
2023/04/23 01:45:18;;;;;;;2.63;2.33;;;13.60;99.90;;;;;;5074147;28;20199;-71
2023/04/23 01:47:45;;;;;;;3.43;2.23;;;13.40;99.90;;;;;;5074279;28;20427;-71
2023/04/23 01:50:11;;;;;;;5.43;1.90;;;13.40;99.90;;;;;;5073469;28;20441;-72
2023/04/23 01:52:37;;;;;;;3.10;1.90;;;13.50;99.90;;;;;;5072829;28;20441;-71
2023/04/23 01:55:03;;;;;;;4.33;2.00;;;13.40;99.90;;;;;;5088575;28;20209;-73
2023/04/23 01:57:28;;;;;;;2.73;1.50;;;13.40;99.90;;;;;;5072186;28;20239;-72
2023/04/23 02:00:10;;;;;;;5.60;2.30;;;13.30;99.90;;;;;;5074243;28;20440;-72
2023/04/23 02:02:36;;;;;;;2.60;1.57;;;13.30;99.90;;;;;;5077591;28;20182;-72
2023/04/23 02:05:03;;;;;;;2.53;1.90;;;13.20;99.90;;;;;;5092846;28;20578;-73
2023/04/23 02:07:30;;;;;;;2.63;1.40;;;13.20;99.90;;;;;;5075773;28;20415;-72
2023/04/23 02:09:57;;;;;;;3.30;1.50;;;13.20;99.90;;;;;;5075068;28;20452;-72
2023/04/23 02:12:22;;;;;;;6.00;2.37;;;13.10;99.90;;;;;;5075081;28;20451;-72
2023/04/23 02:14:48;;;;;;;3.40;1.93;;;13.20;99.90;;;;;;5072457;28;20549;-72
2023/04/23 02:17:13;;;;;;;6.17;2.33;;;13.10;99.90;;;;;;5074417;28;20186;-73
2023/04/23 02:19:39;;;;;;;2.57;1.40;;;13.10;99.90;;;;;;5072980;28;20174;-72
2023/04/23 02:22:08;;;;;;;7.03;1.53;;;13.00;99.90;;;;;;5074202;28;20239;-72
2023/04/23 02:24:33;;;;;;;1.83;1.43;;;13.10;99.90;;;;;;5074487;28;20384;-72
2023/04/23 02:26:59;;;;;;;3.30;2.00;;;13.00;99.90;;;;;;5074604;28;20503;-71
2023/04/23 02:29:24;;;;;;;4.73;1.93;;;13.00;99.90;;;;;;5074504;28;20182;-72
2023/04/23 02:31:50;;;;;;;4.40;1.70;;;13.00;99.90;;;;;;5073995;28;20187;-73
2023/04/23 02:34:16;;;;;;;3.77;1.73;;;12.90;99.90;;;;;;5075510;28;20217;-72
2023/04/23 02:36:41;;;;;;;2.80;1.70;;;12.80;99.90;;;;;;5073945;28;20277;-73
2023/04/23 02:39:07;;;;;;;3.00;2.10;;;12.80;99.90;;;;;;5071896;28;20182;-73
2023/04/23 02:41:32;;;;;;;3.60;1.77;;;12.70;99.90;;;;;;5072888;28;20609;-73
2023/04/23 02:43:58;;;;;;;3.80;2.07;;;12.70;99.90;;;;;;5072885;28;20248;-73
2023/04/23 02:46:24;;;;;;;4.27;1.80;;;12.60;99.90;;;;;;5073555;28;20182;-73
2023/04/23 02:48:49;;;;;;;3.13;1.90;;;12.80;99.90;;;;;;5071293;28;20186;-73
2023/04/23 02:51:15;;;;;;;4.00;1.87;;;12.70;99.90;;;;;;5071808;28;20202;-73
2023/04/23 02:53:40;;;;;;;2.70;2.43;;;12.60;99.90;;;;;;5070491;28;20213;-74
2023/04/23 02:56:06;;;;;;;2.20;1.67;;;12.50;99.90;;;;;;5070321;28;20680;-73
2023/04/23 02:58:32;;;;;;;3.17;2.40;;;12.50;99.90;;;;;;5070294;28;20178;-72
2023/04/23 03:00:58;;;;;;;6.63;2.13;;;12.40;99.90;;;;;;5070284;28;20415;-73
2023/04/23 03:03:26;;;;;;;2.80;2.20;;;12.40;99.90;;;;;;5070038;28;20234;-72
2023/04/23 03:05:52;;;;;;;6.20;2.97;;;12.40;99.90;;;;;;5085698;28;20425;-73
2023/04/23 03:08:18;;;;;;;6.23;2.07;;;12.40;99.90;;;;;;5070009;28;20409;-73
2023/04/23 03:10:43;;;;;;;2.77;2.40;;;12.30;99.90;;;;;;5070029;28;20423;-73
2023/04/23 03:13:09;;;;;;;4.30;1.70;;;12.20;99.90;;;;;;5069630;28;20713;-72
2023/04/23 03:15:34;;;;;;;3.57;1.80;;;12.20;99.90;;;;;;5084945;28;20179;-72
2023/04/23 03:18:00;;;;;;;5.83;2.50;;;12.20;99.90;;;;;;5069208;28;20276;-73
2023/04/23 03:20:27;;;;;;;2.50;1.80;;;12.20;99.90;;;;;;5069597;28;20174;-72
2023/04/23 03:22:52;;;;;;;4.47;2.40;;;12.10;99.90;;;;;;5069625;28;20214;-72
2023/04/23 03:25:19;;;;;;;1.70;1.60;;;12.10;99.90;;;;;;5069243;28;20460;-71
2023/04/23 03:27:44;;;;;;;6.40;2.83;;;12.10;99.90;;;;;;5069419;28;20173;-72
2023/04/23 03:30:11;;;;;;;2.30;1.80;;;12.10;99.90;;;;;;5068184;28;20771;-72
2023/04/23 03:32:37;;;;;;;3.30;1.93;;;12.00;99.90;;;;;;5069503;28;20656;-72
2023/04/23 03:35:03;;;;;;;3.97;2.30;;;12.00;99.90;;;;;;5069089;28;21053;-72
2023/04/23 03:37:29;;;;;;;1.70;1.50;;;11.90;99.90;;;;;;5069189;28;20757;-72
2023/04/23 03:39:55;;;;;;;6.00;1.53;;;11.90;99.90;;;;;;5069101;28;20443;-71
2023/04/23 03:42:20;;;;;;;2.73;1.63;;;11.80;99.90;;;;;;5069253;28;20209;-71
2023/04/23 03:44:46;;;;;;;2.90;2.40;;;11.80;99.90;;;;;;5068914;28;20205;-72
2023/04/23 03:47:11;;;;;;;2.30;1.70;;;11.90;99.90;;;;;;5067580;28;20230;-73
2023/04/23 03:49:37;;;;;;;2.07;1.87;;;11.70;99.90;;;;;;5069019;28;20192;-72
2023/04/23 03:52:03;;;;;;;4.17;2.13;;;11.60;99.90;;;;;;5067767;28;20675;-72
2023/04/23 03:54:28;;;;;;;6.13;2.00;;;11.70;99.90;;;;;;5067217;28;20222;-72
2023/04/23 03:56:56;;;;;;;2.83;2.07;;;11.70;99.90;;;;;;5068923;28;20185;-72
2023/04/23 03:59:22;;;;;;;2.73;2.10;;;11.70;99.90;;;;;;5068671;28;20205;-72
2023/04/23 04:01:47;;;;;;;4.13;1.90;;;11.60;99.90;;;;;;5067241;28;21076;-73
2023/04/23 04:04:13;;;;;;;3.20;2.00;;;11.50;99.90;;;;;;5068596;28;20200;-73
2023/04/23 04:06:39;;;;;;;4.27;2.27;;;11.50;99.90;;;;;;5068734;28;20201;-72
2023/04/23 04:09:07;;;;;;;2.53;2.20;;;11.50;99.90;;;;;;5067263;28;20416;-72
2023/04/23 04:11:32;;;;;;;4.10;2.40;;;11.50;99.90;;;;;;5083975;28;20521;-72
2023/04/23 04:13:58;;;;;;;4.90;2.07;;;11.50;99.90;;;;;;5068316;28;20557;-72
2023/04/23 04:16:24;;;;;;;2.13;1.93;;;11.40;99.90;;;;;;5067113;28;20663;-71
2023/04/23 04:18:49;;;;;;;2.30;2.10;;;11.30;99.90;;;;;;5068676;28;20191;-72
2023/04/23 04:21:16;;;;;;;3.00;2.13;;;11.30;99.90;;;;;;5067271;28;20212;-71
2023/04/23 04:23:42;;;;;;;3.57;2.03;;;11.20;99.90;;;;;;5068381;28;20201;-71
2023/04/23 04:26:08;;;;;;;2.80;1.60;;;11.20;99.90;;;;;;5067216;28;20427;-72
2023/04/23 04:28:36;;;;;;;2.70;1.57;;;11.20;99.90;;;;;;5068561;28;20434;-71
2023/04/23 04:31:02;;;;;;;5.57;2.00;;;11.30;99.90;;;;;;5072441;28;20634;-72
2023/04/23 04:33:28;;;;;;;2.13;1.90;;;11.20;99.90;;;;;;5072215;28;20465;-70
2023/04/23 04:35:55;;;;;;;2.10;1.90;;;11.20;99.90;;;;;;5072371;28;20416;-72
2023/04/23 04:38:21;;;;;;;7.40;1.60;;;11.20;99.90;;;;;;5072352;28;20177;-72
2023/04/23 04:40:47;;;;;;;2.30;2.03;;;11.30;99.90;;;;;;5070989;28;20461;-73
2023/04/23 04:43:15;;;;;;;1.60;1.50;;;11.20;99.90;;;;;;5070877;28;20639;-73
2023/04/23 04:45:41;;;;;;;4.63;1.33;;;11.30;99.90;;;;;;5072414;28;20418;-72
2023/04/23 04:48:07;;;;;;;1.87;1.70;;;11.30;99.90;;;;;;5070943;28;20427;-73
2023/04/23 04:50:32;;;;;;;3.43;1.53;;;11.30;99.90;;;;;;5072186;28;20418;-73
2023/04/23 04:52:58;;;;;;;1.67;1.50;;;11.30;99.90;;;;;;5072147;28;20480;-73
2023/04/23 04:55:24;;;;;;;1.17;0.80;;;11.40;99.90;;;;;;5070626;28;20242;-73
2023/04/23 04:57:49;;;;;;;1.40;1.00;;;11.40;99.90;;;;;;5072111;28;20186;-72
2023/04/23 05:00:26;;;;;;;1.17;0.93;;;11.50;99.90;;;;;;5071850;28;20189;-73
2023/04/23 05:02:52;;;;;;;4.17;2.17;;;11.50;99.90;;;;;;5071953;28;20837;-72
2023/04/23 05:05:19;;;;;;;1.10;0.90;;;11.50;99.90;;;;;;5071867;28;20437;-72
2023/04/23 05:07:45;;;;;;;1.53;1.10;;;11.50;99.90;;;;;;5071680;28;20425;-72
2023/04/23 05:10:11;;;;;;;1.07;0.97;;;11.40;99.90;;;;;;5071747;28;20425;-72
2023/04/23 05:12:40;;;;;;;1.10;1.00;;;11.50;99.90;;;;;;5071747;28;20184;-72
2023/04/23 05:15:07;;;;;;;1.93;1.10;;;11.50;99.90;;;;;;5070151;28;20646;-72
2023/04/23 05:17:32;;;;;;;10.27;6.77;;;11.50;99.90;;;;;;5070104;28;20439;-72
2023/04/23 05:19:58;;;;;;;1.63;1.00;;;11.50;99.90;;;;;;5071676;28;20415;-72
2023/04/23 05:22:25;;;;;;;3.13;1.57;;;11.50;99.90;;;;;;5071709;28;20191;-72
2023/04/23 05:24:50;;;;;;;0.80;0.77;;;11.60;99.90;;;;;;5071546;28;20215;-71
2023/04/23 05:27:16;;;;;;;1.73;1.30;;;11.70;99.90;;;;;;5070336;28;20426;-71
2023/04/23 05:29:41;;;;;;;2.27;1.00;;;11.70;99.90;;;;;;5071312;28;20271;-71
2023/04/23 05:32:07;;;;;;;2.60;1.33;;;11.70;99.90;;;;;;5053424;28;20335;-71
2023/04/23 05:34:32;;;;;;;1.30;1.00;;;11.70;99.90;;;;;;5071276;28;20218;-71
2023/04/23 05:36:58;;;;;;;1.93;0.90;;;11.60;99.90;;;;;;5070081;28;20901;-72
2023/04/23 05:39:24;;;;;;;1.33;1.07;;;11.60;99.90;;;;;;5071225;28;20207;-71
2023/04/23 05:41:49;;;;;;;1.10;0.80;;;11.70;99.90;;;;;;5070062;28;20271;-72
2023/04/23 05:44:15;;;;;;;2.30;1.07;;;11.60;99.90;;;;;;5071185;28;20217;-71
2023/04/23 05:46:40;;;;;;;1.53;0.80;;;11.60;99.90;;;;;;5071060;28;20202;-71
2023/04/23 05:49:06;;;;;;;3.37;0.70;;;11.70;99.90;;;;;;5069744;28;20284;-71
2023/04/23 05:51:31;;;;;;;0.90;0.60;;;11.70;99.90;;;;;;5069763;28;20191;-71
2023/04/23 05:53:57;;;;;;;0.80;0.60;;;11.70;99.90;;;;;;5070943;28;20216;-71
2023/04/23 05:56:22;;;;;;;1.00;0.67;;;11.70;99.90;;;;;;5071136;28;20934;-71
2023/04/23 05:58:48;;;;;;;2.03;0.63;;;11.70;99.90;;;;;;5070885;28;20190;-71
2023/04/23 06:01:14;;;;;;;0.80;0.60;;;11.70;99.90;;;;;;5069114;28;20188;-70
2023/04/23 06:03:44;;;;;;;1.53;0.80;;;11.60;99.90;;;;;;5069324;28;20290;-70
2023/04/23 06:06:11;;;;;;;1.40;0.60;;;11.70;99.90;;;;;;5071011;28;20200;-72
2023/04/23 06:08:36;;;;;;;0.90;0.67;;;11.60;99.90;;;;;;5070762;28;20927;-71
2023/04/23 06:11:02;;;;;;;1.43;0.70;;;11.60;99.90;;;;;;5070735;28;20486;-71
2023/04/23 06:13:29;;;;;;;1.03;0.70;;;11.60;99.90;;;;;;5070387;28;20228;-70
2023/04/23 06:15:55;;;;;;;1.57;0.50;;;11.70;99.90;;;;;;5069037;28;20192;-71
2023/04/23 06:18:21;;;;;;;0.80;0.60;;;11.70;99.90;;;;;;5070628;28;20431;-70
2023/04/23 06:20:47;;;;;;;0.70;0.50;;;11.70;99.90;;;;;;5069232;28;20189;-71
2023/04/23 06:23:13;;;;;;;1.20;0.60;;;11.90;99.90;;;;;;5068907;28;20208;-70
2023/04/23 06:25:39;;;;;;;1.33;0.67;;;11.90;99.90;;;;;;5070414;28;20854;-71
2023/04/23 06:28:05;;;;;;;1.10;0.80;;;12.00;99.90;;;;;;5070386;28;20188;-71
2023/04/23 06:30:31;;;;;;;0.90;0.50;;;12.20;99.90;;;;;;5068972;28;20190;-70
2023/04/23 06:32:56;;;;;;;0.90;0.80;;;12.30;99.90;;;;;;5068778;28;20423;-71
2023/04/23 06:35:22;;;;;;;0.80;0.50;;;12.20;99.90;;;;;;5070138;28;20563;-71
2023/04/23 06:37:47;;;;;;;0.80;0.50;;;12.30;99.90;;;;;;5070334;28;20237;-71
2023/04/23 06:40:14;;;;;;;1.30;0.77;;;12.40;99.90;;;;;;5069887;28;20193;-71
2023/04/23 06:42:39;;;;;;;1.30;0.70;;;12.50;99.90;;;;;;5070026;28;20178;-71
2023/04/23 06:45:05;;;;;;;0.90;0.77;;;12.80;99.90;;;;;;5069877;28;20805;-71
2023/04/23 06:47:31;;;;;;;0.80;0.50;;;12.90;99.90;;;;;;5068538;28;20230;-71
2023/04/23 06:49:59;;;;;;;0.90;0.70;;;13.00;99.90;;;;;;5070237;28;20424;-72
2023/04/23 06:52:25;;;;;;;1.40;0.60;;;13.10;99.90;;;;;;5069688;28;20185;-71
2023/04/23 06:54:50;;;;;;;0.80;0.60;;;13.10;99.90;;;;;;5069756;28;20843;-71
2023/04/23 06:57:16;;;;;;;1.00;0.70;;;12.80;99.90;;;;;;5068238;28;20432;-71
2023/04/23 06:59:42;;;;;;;0.90;0.60;;;12.90;99.90;;;;;;5068282;28;20186;-72
2023/04/23 07:02:07;;;;;;;1.27;0.60;;;13.30;99.90;;;;;;5068427;28;21269;-71
2023/04/23 07:04:33;;;;;;;0.90;0.50;;;13.70;99.90;;;;;;5068344;28;20232;-71
2023/04/23 07:06:59;;;;;;;2.20;0.60;;;14.00;99.90;;;;;;5066565;28;20186;-71
2023/04/23 07:09:26;;;;;;;0.80;0.57;;;14.30;99.90;;;;;;5068064;28;20574;-71
2023/04/23 07:11:52;;;;;;;1.20;0.60;;;14.30;99.90;;;;;;5068106;28;20712;-71
2023/04/23 07:14:17;;;;;;;0.90;0.60;;;14.50;99.90;;;;;;5067808;28;20473;-70
2023/04/23 07:16:43;;;;;;;1.90;0.70;;;14.80;99.90;;;;;;5067903;28;20189;-71
2023/04/23 07:19:08;;;;;;;1.83;0.70;;;14.70;99.90;;;;;;5068090;28;20171;-70
2023/04/23 07:21:34;;;;;;;1.43;0.60;;;14.60;99.90;;;;;;5068132;28;20216;-71
2023/04/23 07:24:05;;;;;;;2.70;0.60;;;14.30;99.90;;;;;;5066530;28;20199;-71
2023/04/23 07:26:32;;;;;;;0.80;0.53;;;14.40;99.90;;;;;;5067858;28;20462;-72
2023/04/23 07:28:57;;;;;;;1.00;0.60;;;14.30;99.90;;;;;;5067830;28;20955;-71
2023/04/23 07:31:23;;;;;;;0.90;0.57;;;14.60;99.90;;;;;;5068423;28;20424;-71
2023/04/23 07:33:49;;;;;;;2.03;1.07;;;14.70;99.90;;;;;;5067892;28;20218;-72
2023/04/23 07:36:14;;;;;;;0.90;0.60;;;14.80;99.90;;;;;;5068062;28;21002;-71
2023/04/23 07:38:40;;;;;;;1.13;0.60;;;15.00;99.90;;;;;;5068221;28;20542;-71
2023/04/23 07:41:06;;;;;;;1.77;0.60;;;15.40;99.90;;;;;;5067783;28;20739;-70
2023/04/23 07:43:32;;;;;;;0.90;0.50;;;15.70;99.90;;;;;;5068209;28;20437;-71
2023/04/23 07:45:57;;;;;;;0.80;0.60;;;16.20;99.90;;;;;;5066862;28;20278;-71
2023/04/23 07:48:23;;;;;;;1.00;0.60;;;16.50;99.90;;;;;;5068930;28;20195;-72
2023/04/23 07:50:48;;;;;;;0.90;0.60;;;16.80;99.90;;;;;;5066630;28;20707;-71
2023/04/23 07:53:14;;;;;;;2.83;0.80;;;16.80;99.90;;;;;;5068074;28;20214;-71
2023/04/23 07:55:40;;;;;;;1.50;0.60;;;17.00;99.90;;;;;;5067891;28;20191;-71
2023/04/23 07:58:05;;;;;;;2.27;0.70;;;16.80;99.90;;;;;;5067688;28;20184;-71
2023/04/23 08:00:31;;;;;;;0.80;0.67;;;16.70;99.90;;;;;;5067754;28;20283;-70
2023/04/23 08:02:57;;;;;;;1.20;0.50;;;16.60;99.90;;;;;;5066262;28;20622;-71
2023/04/23 08:05:23;;;;;;;1.77;0.80;;;16.50;99.90;;;;;;5066650;28;20203;-71
2023/04/23 08:07:49;;;;;;;0.90;0.60;;;16.30;99.90;;;;;;5065985;28;20418;-71
2023/04/23 08:10:15;;;;;;;1.20;0.70;;;16.30;99.90;;;;;;5066008;28;20177;-71
2023/04/23 08:12:40;;;;;;;0.80;0.63;;;16.30;99.90;;;;;;5067789;28;20782;-71
2023/04/23 08:15:07;;;;;;;1.27;0.50;;;16.50;99.90;;;;;;5067183;28;20705;-71
2023/04/23 08:17:32;;;;;;;1.43;0.60;;;16.90;99.90;;;;;;5067576;28;20184;-71
2023/04/23 08:19:58;;;;;;;1.37;1.00;;;17.10;99.90;;;;;;5066249;28;20417;-71
2023/04/23 08:22:23;;;;;;;1.07;0.60;;;17.20;99.90;;;;;;5066409;28;20184;-70
2023/04/23 08:24:49;;;;;;;1.20;0.57;;;17.50;99.90;;;;;;5066626;28;20237;-70
2023/04/23 08:27:15;;;;;;;0.80;0.60;;;17.40;99.90;;;;;;5067772;28;20193;-70
2023/04/23 08:29:40;;;;;;;0.90;0.60;;;17.30;99.20;;;;;;5067823;28;20184;-70
2023/04/23 08:32:06;;;;;;;0.90;0.60;;;17.30;99.90;;;;;;5067440;28;20969;-70
2023/04/23 08:34:31;;;;;;;0.80;0.50;;;17.10;99.90;;;;;;5049509;28;20219;-70
2023/04/23 08:36:57;;;;;;;1.53;0.77;;;16.80;99.90;;;;;;5067787;28;20168;-71
2023/04/23 08:39:22;;;;;;;2.13;0.60;;;16.70;99.90;;;;;;5067761;28;20193;-72
2023/04/23 08:41:54;;;;;;;1.87;0.63;;;16.60;99.90;;;;;;5068029;28;20208;-74
2023/04/23 08:44:24;;;;;;;1.13;0.60;;;16.40;99.90;;;;;;5068026;28;20207;-72
2023/04/23 08:46:52;;;;;;;0.93;0.73;;;16.20;99.90;;;;;;5083108;28;20946;-71
2023/04/23 08:49:18;;;;;;;1.23;0.63;;;15.90;99.90;;;;;;5067504;28;20423;-70
2023/04/23 08:51:53;;;;;;;0.80;0.50;;;15.80;99.90;;;;;;5065671;28;20426;-70
2023/04/23 08:54:26;;;;;;;1.77;0.60;;;15.80;99.90;;;;;;5066828;28;20213;-71
2023/04/23 08:56:59;;;;;;;0.80;0.50;;;16.20;99.90;;;;;;5066812;28;21007;-70
2023/04/23 08:59:28;;;;;;;3.67;0.93;;;16.50;99.90;;;;;;5081862;28;20517;-73
2023/04/23 09:01:55;;;;;;;1.97;0.70;;;16.60;99.90;;;;;;5066805;28;20912;-70
2023/04/23 09:04:22;;;;;;;1.37;0.90;;;16.70;99.90;;;;;;5066533;28;20459;-70
2023/04/23 09:06:48;;;;;;;1.47;0.70;;;17.20;99.90;;;;;;5065284;28;20430;-69
2023/04/23 09:09:19;;;;;;;1.03;0.70;;;17.60;99.90;;;;;;5066886;28;20433;-69
2023/04/23 09:11:44;;;;;;;1.43;0.70;;;18.00;99.90;;;;;;5065050;28;20734;-70
2023/04/23 09:14:11;;;;;;;1.30;0.60;;;18.20;99.80;;;;;;5066523;28;20566;-69
2023/04/23 09:16:39;;;;;;;1.93;0.70;;;18.50;99.30;;;;;;5069609;28;20675;-69
2023/04/23 09:19:08;;;;;;;1.37;0.90;;;19.20;99.90;;;;;;5070269;28;20431;-69
2023/04/23 09:21:35;;;;;;;1.20;0.60;;;19.50;98.60;;;;;;5070343;28;20931;-69
2023/04/23 09:24:04;;;;;;;2.30;0.70;;;19.20;96.50;;;;;;5070107;28;20531;-69
2023/04/23 09:26:29;;;;;;;1.83;0.87;;;19.00;95.90;;;;;;5070006;28;20441;-70
2023/04/23 09:28:55;;;;;;;1.07;0.70;;;18.80;96.70;;;;;;5070767;28;20437;-70
2023/04/23 09:31:22;;;;;;;0.80;0.60;;;18.40;98.60;;;;;;5070184;28;20195;-70
2023/04/23 09:33:52;;;;;;;3.37;0.80;;;18.10;97.30;;;;;;5069924;28;20775;-70
2023/04/23 09:36:22;;;;;;;0.90;0.80;;;17.90;99.40;;;;;;5068495;28;20426;-70
2023/04/23 09:38:49;;;;;;;1.10;0.80;;;18.10;99.30;;;;;;5069787;28;20496;-70
2023/04/23 09:41:26;;;;;;;1.63;0.70;;;18.00;98.80;;;;;;5069827;28;20437;-70
2023/04/23 09:43:56;;;;;;;1.03;0.80;;;19.00;96.50;;;;;;5068475;28;20471;-69
2023/04/23 09:46:32;;;;;;;1.60;0.90;;;19.80;94.50;;;;;;5069842;28;20507;-69
2023/04/23 09:49:00;;;;;;;1.00;0.60;;;19.70;94.20;;;;;;5069689;28;20944;-69
2023/04/23 09:51:27;;;;;;;1.33;0.80;;;19.40;91.70;;;;;;5069804;28;20428;-69
2023/04/23 09:53:52;;;;;;;1.30;0.90;;;19.90;93.40;;;;;;5069468;28;20506;-70
2023/04/23 09:56:20;;;;;;;1.43;0.77;;;19.70;93.30;;;;;;5069690;28;20449;-69
2023/04/23 09:58:45;;;;;;;1.00;0.70;;;19.40;93.60;;;;;;5069664;28;20179;-69
2023/04/23 10:01:14;;;;;;;0.90;0.60;;;19.30;95.00;;;;;;5069731;28;20420;-69
2023/04/23 10:03:43;;;;;;;2.57;1.00;;;19.80;94.00;;;;;;5051884;28;20225;-69
2023/04/23 10:06:14;;;;;;;3.53;1.10;;;19.90;93.60;;;;;;5070066;28;20422;-70
2023/04/23 10:08:40;;;;;;;1.33;1.10;;;19.70;93.00;;;;;;5070061;28;20840;-69
2023/04/23 10:11:06;;;;;;;3.60;0.87;;;19.40;94.00;;;;;;5070259;28;20425;-71
2023/04/23 10:13:34;;;;;;;1.40;0.77;;;19.20;95.50;;;;;;5069607;28;20473;-70
2023/04/23 10:16:01;;;;;;;1.87;1.20;;;19.10;95.80;;;;;;5068358;28;20416;-70
2023/04/23 10:18:29;;;;;;;5.00;1.00;;;19.80;96.30;;;;;;5069828;28;20424;-70
2023/04/23 10:20:56;;;;;;;1.47;0.70;;;20.70;94.60;;;;;;5069349;28;20439;-70
2023/04/23 10:23:23;;;;;;;1.50;0.70;;;21.60;91.10;;;;;;5067661;28;20439;-70
2023/04/23 10:25:52;;;;;;;1.20;1.10;;;21.60;89.70;;;;;;5069992;28;20866;-69
2023/04/23 10:28:25;;;;;;;2.17;1.00;;;21.30;90.20;;;;;;5068398;28;20539;-69
2023/04/23 10:30:52;;;;;;;2.40;0.90;;;21.40;85.60;;;;;;5068886;28;20506;-69
2023/04/23 10:33:19;;;;;;;1.20;1.00;;;21.60;88.80;;;;;;5068754;28;20468;-69
2023/04/23 10:35:46;;;;;;;1.10;1.00;;;21.90;89.70;;;;;;5068933;28;20424;-71
2023/04/23 10:38:13;;;;;;;2.70;0.90;;;21.70;82.80;;;;;;5069353;28;20866;-70
2023/04/23 10:40:44;;;;;;;3.13;1.00;;;21.00;82.60;;;;;;5067427;28;20873;-70
2023/04/23 10:43:09;;;;;;;2.17;0.90;;;20.80;82.70;;;;;;5069016;28;20436;-69
2023/04/23 10:45:35;;;;;;;1.30;1.00;;;20.50;84.60;;;;;;5068682;28;20503;-70
2023/04/23 10:48:00;;;;;;;1.53;0.93;;;20.60;86.20;;;;;;5068844;28;20628;-69
2023/04/23 10:50:33;;;;;;;1.20;1.10;;;20.50;83.30;;;;;;5068435;28;20194;-70
2023/04/23 10:53:01;;;;;;;1.00;0.90;;;20.80;84.30;;;;;;5068165;28;20179;-70
2023/04/23 10:55:28;;;;;;;1.10;0.80;;;21.50;81.90;;;;;;5068372;28;20450;-69
2023/04/23 10:58:02;;;;;;;3.43;1.00;;;22.00;80.80;;;;;;5067144;28;20421;-70
2023/04/23 11:00:44;;;;;;;2.43;0.90;;;22.30;76.60;;;;;;5068244;28;20430;-69
2023/04/23 11:03:30;;;;;;;3.00;0.70;;;22.40;76.90;;;;;;5068325;28;20444;-70
2023/04/23 11:05:57;;;;;;;4.30;1.20;;;22.00;76.40;;;;;;5068128;28;21006;-70
2023/04/23 11:08:22;;;;;;;1.73;0.90;;;21.90;80.80;;;;;;5068094;28;20422;-70
2023/04/23 11:10:56;;;;;;;1.50;0.73;;;21.10;78.30;;;;;;5066545;28;20429;-69
2023/04/23 11:13:26;;;;;;;1.33;0.83;;;20.80;81.80;;;;;;5066481;28;20703;-70
2023/04/23 11:16:15;;;;;;;1.47;1.37;;;20.90;81.00;;;;;;5066539;28;20432;-69
2023/04/23 11:19:02;;;;;;;1.47;1.03;;;20.90;81.90;;;;;;5067893;28;20418;-69
2023/04/23 11:22:01;;;;;;;1.10;0.77;;;20.70;80.60;;;;;;5068026;28;20456;-69
2023/04/23 11:24:41;;;;;;;1.20;0.90;;;20.70;84.60;;;;;;5066701;28;20449;-69
2023/04/23 11:27:17;;;;;;;1.00;0.90;;;20.40;78.60;;;;;;5067819;28;20413;-69
2023/04/23 11:29:44;;;;;;;1.43;1.00;;;20.00;79.90;;;;;;5067840;28;20416;-69
2023/04/23 11:32:14;;;;;;;1.90;0.90;;;20.20;84.10;;;;;;5066450;28;20419;-70
2023/04/23 11:34:42;;;;;;;1.73;0.70;;;20.10;81.30;;;;;;5067609;28;20484;-69
2023/04/23 11:37:10;;;;;;;1.23;0.90;;;20.20;84.70;;;;;;5068135;28;20435;-69
2023/04/23 11:39:36;;;;;;;0.90;0.80;;;20.00;84.20;;;;;;5067066;28;20433;-69
2023/04/23 11:42:02;;;;;;;1.40;0.90;;;20.10;82.80;;;;;;5083518;28;20789;-69
2023/04/23 11:44:28;;;;;;;1.20;0.70;;;20.10;83.50;;;;;;5068208;28;20278;-69
2023/04/23 11:46:54;;;;;;;1.07;0.80;;;19.90;81.90;;;;;;5067705;28;20482;-69
2023/04/23 11:49:20;;;;;;;3.30;1.00;;;19.70;81.20;;;;;;5066696;28;20475;-69
2023/04/23 11:51:46;;;;;;;1.60;0.90;;;19.40;82.80;;;;;;5083223;28;20193;-70
2023/04/23 11:54:13;;;;;;;2.37;0.90;;;19.70;85.40;;;;;;5067594;28;20483;-69
2023/04/23 11:56:40;;;;;;;1.40;0.73;;;20.50;84.60;;;;;;5067742;28;20918;-70
2023/04/23 11:59:06;;;;;;;1.30;0.70;;;20.70;80.50;;;;;;5066369;28;20489;-69
2023/04/23 12:01:46;;;;;;;1.20;0.80;;;21.10;82.10;;;;;;5067425;28;20427;-71
2023/04/23 12:04:19;;;;;;;1.70;0.80;;;21.00;81.30;;;;;;5067448;28;20654;-70
2023/04/23 12:06:47;;;;;;;4.90;0.80;;;20.70;82.00;;;;;;5066060;28;20437;-71
2023/04/23 12:09:14;;;;;;;1.93;0.90;;;20.40;83.40;;;;;;5067339;28;20420;-70
2023/04/23 12:11:41;;;;;;;4.70;0.80;;;20.40;81.40;;;;;;5065938;28;20435;-71
2023/04/23 12:14:09;;;;;;;3.57;0.97;;;20.40;82.60;;;;;;5067103;28;20467;-71
2023/04/23 12:16:45;;;;;;;0.90;0.60;;;21.20;83.60;;;;;;5067469;28;20426;-70
2023/04/23 12:19:16;;;;;;;1.10;0.70;;;21.30;80.00;;;;;;5049884;28;20517;-71
2023/04/23 12:21:56;;;;;;;4.00;1.07;;;21.50;84.00;;;;;;5067252;28;20967;-71
2023/04/23 12:24:26;;;;;;;1.77;0.67;;;21.80;77.20;;;;;;5082308;28;21049;-71
2023/04/23 12:26:59;;;;;;;2.17;0.80;;;21.50;75.70;;;;;;5082599;28;20423;-71
2023/04/23 12:29:25;;;;;;;1.03;0.93;;;21.30;77.90;;;;;;5066260;28;20658;-70
2023/04/23 12:31:52;;;;;;;0.90;0.70;;;21.60;77.10;;;;;;5067739;28;20772;-70
2023/04/23 12:34:21;;;;;;;1.27;0.63;;;20.70;76.80;;;;;;5067608;28;20472;-70
2023/04/23 12:36:49;;;;;;;1.10;0.60;;;20.60;80.20;;;;;;5067828;28;20509;-69
2023/04/23 12:39:28;;;;;;;1.60;0.90;;;20.50;77.50;;;;;;5067494;28;20440;-69
2023/04/23 12:41:56;;;;;;;1.63;0.70;;;21.10;81.00;;;;;;5067575;28;20428;-71
2023/04/23 12:44:22;;;;;;;1.40;0.63;;;22.00;79.30;;;;;;5065770;28;20461;-71